createdAt,value
2023-05-20T00:02:13.123Z,18.78
2023-05-20T00:04:42.350Z,18.77
2023-05-20T00:07:09.401Z,18.94
2023-05-20T00:09:36.362Z,19.66
2023-05-20T00:12:03.371Z,18.64
2023-05-20T00:14:30.314Z,18.49
2023-05-20T00:16:57.237Z,18.91
2023-05-20T00:19:24.274Z,19.08
2023-05-20T00:21:51.337Z,19.19
2023-05-20T00:24:18.263Z,18.64
2023-05-20T00:26:45.159Z,18.00
2023-05-20T00:29:12.037Z,17.92
2023-05-20T00:31:39.017Z,18.12
2023-05-20T00:34:06.016Z,18.22
2023-05-20T00:36:32.936Z,18.09
2023-05-20T00:39:00.251Z,18.59
2023-05-20T00:41:27.458Z,19.28
2023-05-20T00:43:55.146Z,19.37
2023-05-20T00:46:24.623Z,19.23
2023-05-20T00:48:51.658Z,18.66
2023-05-20T00:51:19.015Z,17.74
2023-05-20T00:53:46.390Z,17.77
2023-05-20T00:56:13.531Z,17.98
2023-05-20T00:58:40.803Z,18.36
2023-05-20T01:01:07.807Z,18.48
2023-05-20T01:03:35.423Z,19.04
2023-05-20T01:06:03.215Z,18.85
2023-05-20T01:08:30.237Z,19.10
2023-05-20T01:11:16.826Z,18.98
2023-05-20T01:13:47.512Z,18.10
2023-05-20T01:16:15.736Z,17.80
2023-05-20T01:18:43.683Z,18.01
2023-05-20T01:21:12.795Z,17.75
2023-05-20T01:23:41.309Z,17.63
2023-05-20T01:26:09.168Z,17.70
2023-05-20T01:28:38.885Z,18.01
2023-05-20T01:31:08.785Z,18.08
2023-05-20T01:33:36.957Z,18.39
2023-05-20T01:36:04.274Z,17.76
2023-05-20T01:38:31.766Z,17.79
2023-05-20T01:40:59.933Z,18.20
2023-05-20T01:43:27.453Z,17.69
2023-05-20T01:45:54.344Z,17.54
2023-05-20T01:48:21.235Z,17.47
2023-05-20T01:50:48.152Z,17.58
2023-05-20T01:53:15.148Z,17.34
2023-05-20T01:55:42.080Z,17.25
2023-05-20T01:58:08.982Z,17.44
2023-05-20T02:00:36.003Z,17.76
2023-05-20T02:03:03.919Z,17.80
2023-05-20T02:05:31.146Z,18.95
2023-05-20T02:07:58.201Z,18.68
2023-05-20T02:10:25.114Z,18.00
2023-05-20T02:12:52.079Z,17.44
2023-05-20T02:15:18.941Z,17.72
2023-05-20T02:17:47.214Z,16.87
2023-05-20T02:20:14.211Z,17.27
2023-05-20T02:22:41.192Z,17.61
2023-05-20T02:25:08.607Z,17.67
2023-05-20T02:27:35.532Z,17.52
2023-05-20T02:30:02.401Z,18.06
2023-05-20T02:32:29.746Z,17.86
2023-05-20T02:34:56.772Z,17.43
2023-05-20T02:37:23.751Z,17.26
2023-05-20T02:39:50.772Z,17.57
2023-05-20T02:42:17.637Z,17.94
2023-05-20T02:44:44.521Z,17.90
2023-05-20T02:47:11.395Z,18.62
2023-05-20T02:49:38.272Z,18.12
2023-05-20T02:52:05.575Z,17.74
2023-05-20T02:54:32.564Z,17.30
2023-05-20T02:56:59.436Z,17.52
2023-05-20T02:59:26.807Z,18.33
2023-05-20T03:01:53.767Z,17.93
2023-05-20T03:04:21.927Z,17.51
2023-05-20T03:06:48.966Z,17.73
2023-05-20T03:09:15.913Z,17.72
2023-05-20T03:11:42.819Z,17.72
2023-05-20T03:14:09.740Z,18.11
2023-05-20T03:16:36.690Z,18.59
2023-05-20T03:19:03.693Z,18.11
2023-05-20T03:21:30.625Z,18.25
2023-05-20T03:23:57.504Z,17.91
2023-05-20T03:26:25.851Z,17.51
2023-05-20T03:28:52.792Z,17.61
2023-05-20T03:31:19.711Z,16.97
2023-05-20T03:33:46.736Z,16.20
2023-05-20T03:36:13.662Z,16.86
2023-05-20T03:38:40.568Z,18.37
2023-05-20T03:41:07.639Z,17.83
2023-05-20T03:43:34.530Z,17.61
2023-05-20T03:46:01.609Z,17.24
2023-05-20T03:48:28.513Z,17.47
2023-05-20T03:50:55.616Z,18.06
2023-05-20T03:53:22.585Z,18.05
2023-05-20T03:55:49.588Z,18.28
2023-05-20T03:58:16.791Z,18.52
2023-05-20T04:00:43.672Z,19.00
2023-05-20T04:03:10.757Z,18.85
2023-05-20T04:05:37.825Z,18.68
2023-05-20T04:08:05.274Z,19.30
2023-05-20T04:10:32.977Z,19.85
2023-05-20T04:13:00.061Z,20.69
2023-05-20T04:15:29.918Z,20.74
2023-05-20T04:17:56.887Z,20.41
2023-05-20T04:20:24.673Z,21.76
2023-05-20T04:22:52.479Z,22.19
2023-05-20T04:25:19.562Z,22.69
2023-05-20T04:27:46.745Z,22.19
2023-05-20T04:30:14.129Z,21.96
2023-05-20T04:32:41.815Z,21.96
2023-05-20T04:35:12.220Z,20.98
2023-05-20T04:37:39.285Z,21.53
2023-05-20T04:40:06.956Z,21.66
2023-05-20T04:42:37.942Z,20.98
2023-05-20T04:45:06.033Z,21.92
2023-05-20T04:47:39.307Z,23.08
2023-05-20T04:50:10.956Z,23.79
2023-05-20T04:52:47.786Z,24.15
2023-05-20T04:55:16.148Z,23.01
2023-05-20T04:57:43.704Z,21.59
2023-05-20T05:00:12.690Z,20.89
2023-05-20T05:02:39.977Z,21.47
2023-05-20T05:05:07.696Z,21.59
2023-05-20T05:07:34.646Z,22.33
2023-05-20T05:10:01.761Z,23.22
2023-05-20T05:12:28.715Z,24.12
2023-05-20T05:14:55.596Z,24.84
2023-05-20T05:17:22.507Z,25.71
2023-05-20T05:19:49.488Z,27.06
2023-05-20T05:22:16.625Z,28.12
2023-05-20T05:24:43.566Z,23.43
2023-05-20T05:27:10.465Z,23.25
2023-05-20T05:29:37.371Z,21.40
2023-05-20T05:32:04.497Z,22.14
2023-05-20T05:34:31.385Z,20.83
2023-05-20T05:36:58.243Z,21.23
2023-05-20T05:39:25.178Z,21.55
2023-05-20T05:41:52.160Z,20.91
2023-05-20T05:44:19.055Z,20.56
2023-05-20T05:46:45.982Z,21.27
2023-05-20T05:49:12.934Z,20.36
2023-05-20T05:51:39.873Z,21.34
2023-05-20T05:54:06.786Z,20.75
2023-05-20T05:56:33.737Z,21.02
2023-05-20T05:59:00.642Z,21.17
2023-05-20T06:01:27.587Z,21.35
2023-05-20T06:03:54.679Z,21.95
2023-05-20T06:06:21.717Z,22.22
2023-05-20T06:08:48.628Z,21.46
2023-05-20T06:11:15.728Z,21.12
2023-05-20T06:13:42.724Z,21.36
2023-05-20T06:16:09.993Z,21.01
2023-05-20T06:18:36.926Z,21.34
2023-05-20T06:21:04.059Z,21.77
2023-05-20T06:23:30.936Z,22.33
2023-05-20T06:25:59.443Z,21.50
2023-05-20T06:28:27.227Z,21.99
2023-05-20T06:30:57.833Z,22.31
2023-05-20T06:33:27.767Z,21.35
2023-05-20T06:35:55.941Z,21.74
2023-05-20T06:38:23.222Z,21.31
2023-05-20T06:40:50.173Z,21.67
2023-05-20T06:43:17.624Z,21.98
2023-05-20T06:45:44.653Z,22.34
2023-05-20T06:48:11.574Z,22.76
2023-05-20T06:50:38.480Z,23.16
2023-05-20T06:53:05.514Z,22.59
2023-05-20T06:55:32.746Z,23.07
2023-05-20T06:58:00.161Z,23.30
2023-05-20T07:00:27.168Z,22.49
2023-05-20T07:02:54.146Z,23.28
2023-05-20T07:05:21.231Z,23.87
2023-05-20T07:07:48.086Z,24.08
2023-05-20T07:10:14.988Z,24.38
2023-05-20T07:12:42.348Z,24.36
2023-05-20T07:15:09.735Z,24.90
2023-05-20T07:17:37.092Z,25.09
2023-05-20T07:20:04.451Z,24.44
2023-05-20T07:22:31.446Z,24.43
2023-05-20T07:24:59.650Z,24.01
2023-05-20T07:27:26.535Z,24.73
2023-05-20T07:29:53.403Z,24.36
2023-05-20T07:32:20.533Z,24.95
2023-05-20T07:34:47.435Z,24.61
2023-05-20T07:37:14.999Z,24.53
2023-05-20T07:39:41.919Z,24.48
2023-05-20T07:42:08.900Z,25.53
2023-05-20T07:44:36.360Z,25.23
2023-05-20T07:47:03.476Z,25.19
2023-05-20T07:49:30.392Z,24.68
2023-05-20T07:51:57.247Z,25.11
2023-05-20T07:54:24.443Z,25.80
2023-05-20T07:56:51.644Z,24.93
2023-05-20T07:59:18.544Z,25.22
2023-05-20T08:01:45.539Z,25.30
2023-05-20T08:04:12.575Z,25.45
2023-05-20T08:06:40.019Z,25.12
2023-05-20T08:09:07.455Z,24.27
2023-05-20T08:11:34.393Z,25.70
2023-05-20T08:14:02.270Z,26.73
2023-05-20T08:16:29.199Z,26.25
2023-05-20T08:18:56.221Z,26.09
2023-05-20T08:21:23.127Z,25.32
2023-05-20T08:23:50.031Z,25.98
2023-05-20T08:26:17.104Z,25.12
2023-05-20T08:28:44.077Z,25.07
2023-05-20T08:31:11.054Z,24.75
2023-05-20T08:33:38.022Z,25.14
2023-05-20T08:36:05.016Z,25.35
2023-05-20T08:38:31.904Z,25.22
2023-05-20T08:40:58.787Z,24.72
2023-05-20T08:43:26.663Z,25.91
2023-05-20T08:45:53.764Z,25.45
2023-05-20T08:48:23.520Z,25.99
2023-05-20T08:50:51.988Z,26.39
2023-05-20T08:53:19.721Z,26.00
2023-05-20T08:55:49.148Z,25.43
2023-05-20T08:58:17.921Z,24.94
2023-05-20T09:00:44.873Z,25.02
2023-05-20T09:03:11.850Z,25.13
2023-05-20T09:05:38.833Z,25.90
2023-05-20T09:08:09.194Z,26.12
2023-05-20T09:10:37.372Z,25.30
2023-05-20T09:13:06.954Z,24.91
2023-05-20T09:15:35.213Z,24.96
2023-05-20T09:18:07.263Z,25.56
2023-05-20T09:20:37.507Z,25.05
2023-05-20T09:23:06.533Z,24.81
2023-05-20T09:25:34.137Z,24.73
2023-05-20T09:28:01.528Z,25.07
2023-05-20T09:30:28.596Z,24.36
2023-05-20T09:32:57.022Z,24.13
2023-05-20T09:35:24.936Z,25.50
2023-05-20T09:37:57.313Z,25.33
2023-05-20T09:40:29.862Z,25.70
2023-05-20T09:43:11.373Z,25.90
2023-05-20T09:45:39.094Z,25.54
2023-05-20T09:48:06.423Z,25.80
2023-05-20T09:50:33.521Z,25.43
2023-05-20T09:53:04.115Z,25.13
2023-05-20T09:55:32.208Z,25.42
2023-05-20T09:58:02.752Z,26.10
2023-05-20T10:00:29.995Z,25.37
2023-05-20T10:02:57.469Z,25.68
2023-05-20T10:05:36.159Z,26.06
2023-05-20T10:08:24.100Z,25.46
2023-05-20T10:11:17.610Z,26.36
2023-05-20T10:14:05.941Z,26.78
2023-05-20T10:16:51.183Z,25.97
2023-05-20T10:19:31.361Z,26.56
2023-05-20T10:21:59.150Z,26.70
2023-05-20T10:24:36.370Z,27.02
2023-05-20T10:27:05.057Z,26.56
2023-05-20T10:29:55.861Z,26.65
2023-05-20T10:32:31.728Z,26.98
2023-05-20T10:35:05.439Z,26.81
2023-05-20T10:37:34.644Z,26.72
2023-05-20T10:40:11.795Z,27.31
2023-05-20T10:42:38.878Z,27.25
2023-05-20T10:45:07.313Z,27.13
2023-05-20T10:47:35.321Z,27.19
2023-05-20T10:50:02.970Z,27.09
2023-05-20T10:52:34.288Z,26.89
2023-05-20T10:55:01.893Z,27.27
2023-05-20T10:57:29.578Z,27.31
2023-05-20T10:59:57.094Z,26.69
2023-05-20T11:02:27.349Z,26.92
2023-05-20T11:04:56.665Z,27.02
2023-05-20T11:07:28.193Z,26.41
2023-05-20T11:09:59.102Z,26.58
2023-05-20T11:12:27.487Z,27.17
2023-05-20T11:14:54.624Z,26.52
2023-05-20T11:17:21.629Z,26.89
2023-05-20T11:19:48.869Z,26.36
2023-05-20T11:22:16.133Z,26.46
2023-05-20T11:24:43.054Z,26.22
2023-05-20T11:27:09.983Z,25.99
2023-05-20T11:29:37.446Z,26.86
2023-05-20T11:32:04.762Z,26.60
2023-05-20T11:34:36.570Z,27.12
2023-05-20T11:37:07.956Z,27.50
2023-05-20T11:39:34.888Z,27.61
2023-05-20T11:42:01.793Z,27.42
2023-05-20T11:44:28.703Z,27.71
2023-05-20T11:47:02.282Z,27.47
2023-05-20T11:49:29.417Z,27.77
2023-05-20T11:51:57.191Z,27.36
2023-05-20T11:54:25.215Z,27.46
2023-05-20T11:56:52.274Z,26.78
2023-05-20T11:59:19.152Z,26.98
2023-05-20T12:01:46.094Z,27.34
2023-05-20T12:04:16.665Z,26.72
2023-05-20T12:06:44.314Z,26.45
2023-05-20T12:09:11.512Z,27.38
2023-05-20T12:11:41.295Z,27.11
2023-05-20T12:14:09.241Z,26.46
2023-05-20T12:16:37.493Z,27.13
2023-05-20T12:19:04.842Z,26.84
2023-05-20T12:21:32.202Z,27.69
2023-05-20T12:23:59.903Z,27.72
2023-05-20T12:26:28.074Z,27.18
2023-05-20T12:28:55.325Z,26.72
2023-05-20T12:31:22.342Z,27.15
2023-05-20T12:33:49.300Z,27.13
2023-05-20T12:36:16.476Z,26.98
2023-05-20T12:38:43.506Z,27.47
2023-05-20T12:41:10.461Z,27.01
2023-05-20T12:43:37.637Z,27.03
2023-05-20T12:46:05.087Z,26.96
2023-05-20T12:48:32.134Z,27.13
2023-05-20T12:50:59.046Z,27.50
2023-05-20T12:53:25.957Z,27.42
2023-05-20T12:55:52.885Z,28.03
2023-05-20T12:58:20.080Z,27.45
2023-05-20T13:00:46.996Z,27.95
2023-05-20T13:03:14.028Z,27.83
2023-05-20T13:05:41.098Z,28.12
2023-05-20T13:08:09.199Z,28.19
2023-05-20T13:10:36.602Z,28.33
2023-05-20T13:13:03.682Z,28.66
2023-05-20T13:15:30.595Z,28.53
2023-05-20T13:17:57.692Z,28.97
2023-05-20T13:20:24.626Z,29.56
2023-05-20T13:22:51.636Z,28.75
2023-05-20T13:25:18.599Z,28.81
2023-05-20T13:27:45.597Z,29.18
2023-05-20T13:30:12.772Z,29.20
2023-05-20T13:32:39.687Z,28.75
2023-05-20T13:35:07.272Z,29.58
2023-05-20T13:37:34.147Z,28.14
2023-05-20T13:40:01.066Z,28.55
2023-05-20T13:42:28.121Z,27.53
2023-05-20T13:44:55.034Z,27.72
2023-05-20T13:47:21.948Z,27.23
2023-05-20T13:49:48.876Z,27.24
2023-05-20T13:52:15.837Z,27.37
2023-05-20T13:54:44.858Z,27.70
2023-05-20T13:57:11.746Z,27.45
2023-05-20T13:59:38.819Z,27.46
2023-05-20T14:02:06.101Z,27.52
2023-05-20T14:04:38.185Z,27.86
2023-05-20T14:07:07.658Z,27.89
2023-05-20T14:09:36.535Z,27.73
2023-05-20T14:12:05.221Z,27.49
2023-05-20T14:14:32.169Z,27.21
2023-05-20T14:16:59.061Z,27.53
2023-05-20T14:19:27.168Z,27.72
2023-05-20T14:21:54.187Z,27.49
2023-05-20T14:24:23.436Z,26.96
2023-05-20T14:26:50.744Z,27.14
2023-05-20T14:29:17.938Z,27.22
2023-05-20T14:31:45.226Z,27.18
2023-05-20T14:34:12.256Z,27.55
2023-05-20T14:36:39.518Z,26.90
2023-05-20T14:39:06.420Z,27.24
2023-05-20T14:41:33.303Z,26.78
2023-05-20T14:44:00.195Z,26.76
2023-05-20T14:46:27.308Z,26.47
2023-05-20T14:48:54.261Z,26.83
2023-05-20T14:51:21.202Z,26.58
2023-05-20T14:53:48.102Z,27.07
2023-05-20T14:56:14.972Z,27.10
2023-05-20T14:58:42.144Z,26.94
2023-05-20T15:01:09.346Z,26.87
2023-05-20T15:03:36.329Z,26.88
2023-05-20T15:06:03.293Z,26.80
2023-05-20T15:08:30.167Z,26.73
2023-05-20T15:10:57.134Z,26.60
2023-05-20T15:13:24.098Z,26.59
2023-05-20T15:15:51.162Z,26.47
2023-05-20T15:18:18.122Z,26.95
2023-05-20T15:20:45.183Z,26.85
2023-05-20T15:23:12.406Z,26.92
2023-05-20T15:25:39.333Z,26.94
2023-05-20T15:28:06.323Z,26.60
2023-05-20T15:30:33.436Z,26.30
2023-05-20T15:33:01.336Z,26.24
2023-05-20T15:35:28.797Z,26.00
2023-05-20T15:37:55.744Z,26.71
2023-05-20T15:40:22.785Z,26.66
2023-05-20T15:42:49.659Z,26.23
2023-05-20T15:45:16.640Z,26.81
2023-05-20T15:47:43.599Z,26.40
2023-05-20T15:50:11.507Z,26.47
2023-05-20T15:52:38.802Z,26.18
2023-05-20T15:55:06.385Z,26.53
2023-05-20T15:57:33.340Z,26.76
2023-05-20T16:00:00.394Z,26.32
2023-05-20T16:02:27.500Z,26.08
2023-05-20T16:04:54.630Z,26.10
2023-05-20T16:07:24.592Z,25.54
2023-05-20T16:09:51.656Z,26.30
2023-05-20T16:12:18.619Z,26.34
2023-05-20T16:14:45.855Z,26.35
2023-05-20T16:17:12.881Z,26.41
2023-05-20T16:19:39.806Z,26.73
2023-05-20T16:22:06.829Z,26.32
2023-05-20T16:24:33.668Z,26.35
2023-05-20T16:27:00.623Z,25.94
2023-05-20T16:29:27.567Z,26.72
2023-05-20T16:31:54.509Z,26.44
2023-05-20T16:34:21.493Z,26.08
2023-05-20T16:36:48.509Z,26.24
2023-05-20T16:39:16.193Z,25.76
2023-05-20T16:41:43.398Z,25.43
2023-05-20T16:44:10.809Z,25.54
2023-05-20T16:46:37.699Z,25.83
2023-05-20T16:49:04.681Z,25.97
2023-05-20T16:51:31.566Z,26.13
2023-05-20T16:53:58.412Z,25.69
2023-05-20T16:56:25.287Z,26.19
2023-05-20T16:58:53.331Z,25.71
2023-05-20T17:01:21.616Z,25.82
2023-05-20T17:03:49.033Z,25.54
2023-05-20T17:06:23.929Z,24.80
2023-05-20T17:08:51.135Z,25.27
2023-05-20T17:11:18.059Z,24.73
2023-05-20T17:13:44.986Z,25.55
2023-05-20T17:16:12.338Z,25.46
2023-05-20T17:18:39.273Z,25.21
2023-05-20T17:21:06.243Z,25.28
2023-05-20T17:23:33.097Z,25.17
2023-05-20T17:26:00.018Z,25.20
2023-05-20T17:28:26.917Z,24.77
2023-05-20T17:30:53.823Z,24.81
2023-05-20T17:33:21.008Z,25.48
2023-05-20T17:35:48.059Z,24.89
2023-05-20T17:38:14.910Z,24.64
2023-05-20T17:40:41.798Z,25.36
2023-05-20T17:43:08.716Z,24.76
2023-05-20T17:45:35.599Z,24.87
2023-05-20T17:48:08.214Z,24.35
2023-05-20T17:50:37.788Z,25.17
2023-05-20T17:53:04.778Z,24.28
2023-05-20T17:55:32.978Z,24.54
2023-05-20T17:58:02.011Z,24.71
2023-05-20T18:00:29.054Z,24.59
2023-05-20T18:02:58.830Z,24.66
2023-05-20T18:05:26.660Z,24.74
2023-05-20T18:07:53.596Z,24.71
2023-05-20T18:10:20.783Z,24.91
2023-05-20T18:12:47.702Z,24.95
2023-05-20T18:15:14.621Z,24.30
2023-05-20T18:17:41.599Z,23.86
2023-05-20T18:20:09.875Z,24.21
2023-05-20T18:22:36.819Z,24.06
2023-05-20T18:25:03.957Z,23.90
2023-05-20T18:27:32.011Z,24.26
2023-05-20T18:29:59.202Z,24.22
2023-05-20T18:32:28.620Z,24.15
2023-05-20T18:34:55.615Z,23.49
2023-05-20T18:37:22.532Z,23.42
2023-05-20T18:39:49.472Z,23.38
2023-05-20T18:42:16.349Z,23.35
2023-05-20T18:44:43.606Z,23.27
2023-05-20T18:47:11.272Z,23.62
2023-05-20T18:49:38.153Z,23.59
2023-05-20T18:52:05.247Z,24.16
2023-05-20T18:54:32.122Z,23.05
2023-05-20T18:56:59.037Z,23.14
2023-05-20T18:59:26.131Z,23.56
2023-05-20T19:01:53.076Z,23.00
2023-05-20T19:04:19.928Z,22.56
2023-05-20T19:06:48.183Z,22.37
2023-05-20T19:09:15.071Z,22.69
2023-05-20T19:11:41.976Z,22.93
2023-05-20T19:14:08.927Z,23.05
2023-05-20T19:16:36.024Z,22.77
2023-05-20T19:19:03.147Z,22.99
2023-05-20T19:21:31.497Z,22.93
2023-05-20T19:23:58.496Z,23.49
2023-05-20T19:26:26.631Z,22.82
2023-05-20T19:28:53.525Z,22.43
2023-05-20T19:31:23.299Z,22.72
2023-05-20T19:33:51.005Z,22.83
2023-05-20T19:36:17.941Z,22.12
2023-05-20T19:38:44.821Z,21.46
2023-05-20T19:41:12.783Z,22.05
2023-05-20T19:43:40.089Z,22.21
2023-05-20T19:46:07.117Z,22.40
2023-05-20T19:48:34.328Z,22.95
2023-05-20T19:51:01.704Z,22.77
2023-05-20T19:53:28.650Z,22.07
2023-05-20T19:55:55.701Z,22.10
2023-05-20T19:58:22.984Z,21.69
2023-05-20T20:00:49.871Z,22.37
2023-05-20T20:03:16.769Z,22.80
2023-05-20T20:05:43.699Z,23.27
2023-05-20T20:08:10.937Z,23.72
2023-05-20T20:10:37.856Z,23.24
2023-05-20T20:13:04.736Z,23.51
2023-05-20T20:15:32.231Z,23.32
2023-05-20T20:17:59.526Z,23.60
2023-05-20T20:20:27.031Z,23.44
2023-05-20T20:22:54.125Z,22.84
2023-05-20T20:25:21.167Z,23.80
2023-05-20T20:27:48.638Z,23.44
2023-05-20T20:30:15.846Z,23.45
2023-05-20T20:32:42.883Z,23.37
2023-05-20T20:35:11.018Z,24.02
2023-05-20T20:37:38.541Z,22.78
2023-05-20T20:40:08.175Z,22.37
2023-05-20T20:42:35.115Z,20.42
2023-05-20T20:45:02.537Z,20.51
2023-05-20T20:47:29.752Z,21.22
2023-05-20T20:49:56.973Z,20.71
2023-05-20T20:52:23.886Z,20.72
2023-05-20T20:54:50.783Z,20.46
2023-05-20T20:57:17.706Z,22.02
2023-05-20T20:59:47.977Z,23.00
2023-05-20T21:02:15.194Z,23.10
2023-05-20T21:04:42.907Z,22.85
2023-05-20T21:07:09.899Z,22.85
2023-05-20T21:09:36.828Z,22.40
2023-05-20T21:12:06.928Z,22.55
2023-05-20T21:14:33.905Z,22.72
2023-05-20T21:17:01.114Z,22.87
2023-05-20T21:19:28.472Z,23.02
2023-05-20T21:21:55.736Z,22.86
2023-05-20T21:24:22.575Z,22.92
2023-05-20T21:26:49.431Z,23.25
2023-05-20T21:29:16.380Z,22.47
2023-05-20T21:31:43.262Z,22.57
2023-05-20T21:34:10.134Z,22.42
2023-05-20T21:36:37.129Z,22.33
2023-05-20T21:39:04.210Z,22.77
2023-05-20T21:41:31.139Z,22.93
2023-05-20T21:43:58.055Z,23.11
2023-05-20T21:46:25.097Z,23.08
2023-05-20T21:48:52.054Z,23.24
2023-05-20T21:51:18.943Z,22.65
2023-05-20T21:53:46.033Z,22.67
2023-05-20T21:56:12.952Z,22.34
2023-05-20T21:58:41.827Z,21.97
2023-05-20T22:01:12.114Z,18.61
2023-05-20T22:03:40.224Z,19.32
2023-05-20T22:06:07.436Z,18.32
2023-05-20T22:08:34.350Z,18.90
2023-05-20T22:11:05.553Z,20.03
2023-05-20T22:13:33.320Z,19.45
2023-05-20T22:16:01.594Z,20.26
2023-05-20T22:18:29.316Z,21.14
2023-05-20T22:20:59.254Z,20.71
2023-05-20T22:23:26.945Z,21.34
2023-05-20T22:25:55.137Z,21.18
2023-05-20T22:28:22.124Z,20.75
2023-05-20T22:30:48.984Z,19.58
2023-05-20T22:33:15.882Z,19.41
2023-05-20T22:35:42.779Z,20.31
2023-05-20T22:38:09.692Z,20.38
2023-05-20T22:40:36.630Z,20.22
2023-05-20T22:43:03.553Z,21.03
2023-05-20T22:45:30.754Z,20.86
2023-05-20T22:47:57.724Z,21.03
2023-05-20T22:50:26.471Z,21.23
2023-05-20T22:52:53.390Z,21.41
2023-05-20T22:55:20.310Z,21.61
2023-05-20T22:57:47.201Z,22.13
2023-05-20T23:00:15.611Z,22.44
2023-05-20T23:02:42.500Z,21.08
2023-05-20T23:05:09.515Z,21.40
2023-05-20T23:07:36.411Z,21.53
2023-05-20T23:10:03.565Z,20.76
2023-05-20T23:12:30.417Z,19.73
2023-05-20T23:14:57.294Z,20.49
2023-05-20T23:17:24.338Z,20.60
2023-05-20T23:19:51.377Z,21.68
2023-05-20T23:22:18.656Z,21.56
2023-05-20T23:24:45.609Z,18.28
2023-05-20T23:27:12.512Z,19.69
2023-05-20T23:29:39.901Z,18.96
2023-05-20T23:32:07.092Z,20.20
2023-05-20T23:34:34.155Z,20.66
2023-05-20T23:37:01.096Z,21.14
2023-05-20T23:39:27.995Z,21.10
2023-05-20T23:41:54.864Z,20.74
2023-05-20T23:44:21.744Z,20.54
2023-05-20T23:46:49.782Z,20.41
2023-05-20T23:49:18.645Z,20.51
2023-05-20T23:51:45.704Z,20.79
2023-05-20T23:54:16.518Z,20.45
2023-05-20T23:56:43.543Z,20.39
2023-05-20T23:59:10.651Z,20.47
